createdAt,value
2019-04-30T00:01:07.530Z,9.97
2019-04-30T00:03:39.437Z,10.90
2019-04-30T00:06:07.417Z,11.30
2019-04-30T00:08:35.479Z,12.97
2019-04-30T00:11:02.324Z,9.87
2019-04-30T00:13:28.945Z,11.10
2019-04-30T00:16:00.126Z,12.67
2019-04-30T00:18:25.461Z,12.50
2019-04-30T00:20:52.015Z,13.67
2019-04-30T00:23:22.627Z,15.33
2019-04-30T00:25:47.199Z,13.30
2019-04-30T00:28:15.504Z,12.90
2019-04-30T00:30:43.993Z,11.83
2019-04-30T00:33:15.244Z,11.50
2019-04-30T00:35:38.921Z,13.13
2019-04-30T00:38:05.904Z,16.10
2019-04-30T00:40:32.740Z,11.60
2019-04-30T00:43:00.262Z,13.27
2019-04-30T00:45:27.973Z,13.67
2019-04-30T00:47:55.949Z,13.90
2019-04-30T00:50:24.800Z,12.30
2019-04-30T00:52:51.073Z,13.80
2019-04-30T00:55:17.338Z,13.43
2019-04-30T00:57:46.081Z,11.63
2019-04-30T01:00:12.581Z,11.77
2019-04-30T01:02:45.535Z,17.23
2019-04-30T01:05:17.591Z,11.60
2019-04-30T01:07:50.754Z,19.97
2019-04-30T01:10:15.054Z,15.20
2019-04-30T01:12:47.019Z,14.60
2019-04-30T01:15:11.236Z,16.17
2019-04-30T01:17:38.249Z,15.80
2019-04-30T01:20:06.648Z,17.03
2019-04-30T01:22:33.043Z,20.70
2019-04-30T01:25:01.332Z,19.30
2019-04-30T01:27:28.383Z,24.30
2019-04-30T01:29:54.567Z,24.47
2019-04-30T01:32:21.227Z,21.93
2019-04-30T01:34:49.828Z,24.13
2019-04-30T01:37:15.279Z,24.97
2019-04-30T01:39:41.671Z,23.63
2019-04-30T01:42:11.253Z,24.00
2019-04-30T01:44:35.636Z,22.23
2019-04-30T01:47:01.805Z,27.30
2019-04-30T01:49:28.994Z,25.93
2019-04-30T01:51:57.438Z,24.13
2019-04-30T01:54:24.494Z,24.90
2019-04-30T01:57:04.602Z,26.10
2019-04-30T01:59:32.624Z,28.53
2019-04-30T02:01:59.026Z,28.70
2019-04-30T02:04:25.068Z,27.50
2019-04-30T02:06:51.227Z,26.90
2019-04-30T02:09:18.884Z,26.47
2019-04-30T02:11:45.494Z,25.63
2019-04-30T02:14:11.669Z,23.00
2019-04-30T02:16:39.456Z,29.73
2019-04-30T02:19:05.634Z,23.90
2019-04-30T02:21:33.357Z,25.07
2019-04-30T02:23:59.616Z,22.40
2019-04-30T02:26:25.956Z,21.53
2019-04-30T02:28:52.062Z,24.27
2019-04-30T02:31:19.441Z,21.60
2019-04-30T02:33:50.290Z,25.70
2019-04-30T02:36:34.078Z,21.80
2019-04-30T02:39:02.650Z,21.93
2019-04-30T02:41:29.310Z,22.20
2019-04-30T02:43:59.680Z,24.47
2019-04-30T02:46:26.165Z,22.40
2019-04-30T02:48:53.183Z,24.03
2019-04-30T02:51:22.900Z,23.30
2019-04-30T02:54:09.555Z,25.20
2019-04-30T02:56:35.222Z,21.50
2019-04-30T02:59:03.802Z,20.37
2019-04-30T03:01:30.527Z,23.30
2019-04-30T03:03:59.557Z,22.20
2019-04-30T03:06:24.736Z,22.37
2019-04-30T03:08:51.439Z,19.30
2019-04-30T03:11:20.279Z,22.10
2019-04-30T03:13:45.527Z,22.70
2019-04-30T03:16:13.537Z,25.37
2019-04-30T03:18:50.085Z,23.13
2019-04-30T03:21:34.349Z,24.07
2019-04-30T03:24:00.727Z,25.17
2019-04-30T03:26:29.615Z,22.43
2019-04-30T03:28:54.717Z,22.60
2019-04-30T03:31:22.413Z,23.73
2019-04-30T03:33:52.475Z,23.03
2019-04-30T03:36:21.281Z,23.23
2019-04-30T03:38:44.627Z,22.47
2019-04-30T03:41:10.625Z,24.50
2019-04-30T03:43:36.643Z,24.63
2019-04-30T03:46:03.054Z,26.20
2019-04-30T03:48:29.478Z,24.47
2019-04-30T03:50:57.099Z,29.27
2019-04-30T03:53:23.787Z,24.57
2019-04-30T03:55:50.559Z,23.23
2019-04-30T03:58:20.820Z,29.20
2019-04-30T04:00:46.795Z,28.33
2019-04-30T04:03:12.846Z,29.73
2019-04-30T04:05:49.819Z,34.00
2019-04-30T04:08:23.441Z,32.07
2019-04-30T04:11:00.298Z,28.30
2019-04-30T04:13:25.112Z,26.90
2019-04-30T04:15:51.143Z,26.87
2019-04-30T04:18:20.021Z,23.07
2019-04-30T04:20:45.160Z,25.50
2019-04-30T04:23:11.243Z,23.60
2019-04-30T04:25:39.603Z,26.87
2019-04-30T04:28:05.289Z,26.03
2019-04-30T04:30:31.319Z,25.67
2019-04-30T04:33:00.165Z,27.27
2019-04-30T04:35:29.642Z,28.90
2019-04-30T04:37:54.740Z,31.27
2019-04-30T04:40:21.330Z,25.23
2019-04-30T04:42:49.301Z,24.33
2019-04-30T04:45:15.578Z,26.20
2019-04-30T04:47:41.568Z,26.87
2019-04-30T04:50:10.284Z,24.80
2019-04-30T04:52:36.296Z,30.97
2019-04-30T04:55:04.875Z,25.50
2019-04-30T04:57:30.910Z,24.63
2019-04-30T05:00:00.451Z,25.50
2019-04-30T05:02:32.134Z,25.63
2019-04-30T05:04:55.472Z,31.03
2019-04-30T05:07:21.661Z,31.47
2019-04-30T05:09:48.944Z,28.20
2019-04-30T05:12:15.056Z,26.10
2019-04-30T05:14:41.053Z,29.50
2019-04-30T05:17:07.060Z,24.13
2019-04-30T05:19:33.086Z,28.43
2019-04-30T05:21:59.662Z,25.57
2019-04-30T05:24:25.840Z,28.93
2019-04-30T05:26:51.840Z,21.93
2019-04-30T05:29:19.055Z,27.37
2019-04-30T05:31:45.208Z,20.33
2019-04-30T05:34:11.385Z,21.37
2019-04-30T05:36:39.178Z,20.70
2019-04-30T05:39:05.393Z,18.50
2019-04-30T05:41:49.072Z,18.13
2019-04-30T05:44:14.649Z,23.93
2019-04-30T05:46:41.482Z,19.40
2019-04-30T05:49:09.012Z,18.43
2019-04-30T05:51:35.215Z,21.13
2019-04-30T05:54:01.230Z,20.50
2019-04-30T05:56:30.148Z,20.67
2019-04-30T05:58:55.383Z,18.60
2019-04-30T06:01:24.178Z,14.50
2019-04-30T06:03:49.411Z,14.97
2019-04-30T06:06:15.426Z,15.43
2019-04-30T06:08:43.409Z,12.67
2019-04-30T06:11:14.711Z,16.83
2019-04-30T06:14:00.460Z,16.00
2019-04-30T06:16:29.816Z,13.60
2019-04-30T06:18:56.068Z,20.50
2019-04-30T06:21:22.185Z,15.67
2019-04-30T06:23:49.257Z,17.23
2019-04-30T06:26:15.942Z,15.80
2019-04-30T06:28:42.077Z,14.80
2019-04-30T06:31:09.154Z,14.23
2019-04-30T06:33:35.420Z,12.40
2019-04-30T06:36:03.429Z,13.77
2019-04-30T06:38:29.460Z,12.67
2019-04-30T06:40:55.510Z,13.33
2019-04-30T06:43:22.590Z,10.63
2019-04-30T06:45:51.260Z,11.37
2019-04-30T06:48:19.908Z,11.87
2019-04-30T06:50:46.290Z,11.53
2019-04-30T06:53:12.356Z,13.07
2019-04-30T06:55:39.209Z,9.87
2019-04-30T06:58:14.829Z,12.57
2019-04-30T07:00:35.650Z,10.83
2019-04-30T07:03:01.795Z,23.07
2019-04-30T07:05:28.637Z,10.00
2019-04-30T07:08:13.092Z,14.40
2019-04-30T07:10:41.419Z,10.57
2019-04-30T07:13:08.961Z,12.13
2019-04-30T07:15:34.968Z,10.13
2019-04-30T07:18:00.995Z,11.23
2019-04-30T07:20:29.112Z,10.63
2019-04-30T07:23:02.182Z,12.63
2019-04-30T07:25:23.084Z,16.07
2019-04-30T07:27:50.546Z,15.30
2019-04-30T07:30:18.874Z,12.37
2019-04-30T07:32:44.924Z,12.03
2019-04-30T07:35:11.176Z,10.90
2019-04-30T07:37:39.179Z,11.73
2019-04-30T07:40:06.383Z,14.97
2019-04-30T07:42:36.961Z,8.60
2019-04-30T07:45:00.787Z,10.03
2019-04-30T07:47:29.566Z,10.13
2019-04-30T07:49:55.969Z,14.13
2019-04-30T07:52:22.951Z,10.70
2019-04-30T07:54:51.785Z,7.93
2019-04-30T07:57:19.252Z,8.47
2019-04-30T07:59:45.453Z,8.33
2019-04-30T08:02:14.638Z,7.33
2019-04-30T08:04:44.098Z,8.23
2019-04-30T08:07:10.345Z,7.90
2019-04-30T08:09:39.695Z,9.30
2019-04-30T08:12:04.749Z,9.30
2019-04-30T08:14:30.742Z,9.67
2019-04-30T08:16:58.566Z,7.33
2019-04-30T08:19:24.762Z,9.90
2019-04-30T08:21:50.775Z,11.73
2019-04-30T08:24:16.796Z,8.63
2019-04-30T08:26:42.824Z,6.90
2019-04-30T08:29:09.604Z,7.57
2019-04-30T08:31:35.750Z,8.87
2019-04-30T08:34:01.767Z,8.10
2019-04-30T08:36:29.639Z,9.80
2019-04-30T08:38:55.670Z,9.87
2019-04-30T08:41:21.719Z,8.17
2019-04-30T08:43:49.469Z,8.87
2019-04-30T08:46:15.835Z,9.60
2019-04-30T08:48:50.449Z,9.53
2019-04-30T08:51:13.308Z,7.27
2019-04-30T08:53:38.635Z,8.33
2019-04-30T08:56:05.860Z,7.80
2019-04-30T08:58:31.846Z,9.17
2019-04-30T09:00:58.892Z,9.47
2019-04-30T09:03:24.897Z,8.60
2019-04-30T09:05:52.789Z,12.90
2019-04-30T09:08:19.454Z,6.73
2019-04-30T09:10:45.883Z,6.57
2019-04-30T09:13:11.885Z,8.30
2019-04-30T09:15:37.875Z,8.27
2019-04-30T09:18:08.234Z,7.13
2019-04-30T09:20:32.180Z,6.67
2019-04-30T09:22:59.562Z,7.47
2019-04-30T09:25:25.707Z,8.00
2019-04-30T09:27:51.688Z,7.90
2019-04-30T09:30:18.860Z,6.67
2019-04-30T09:32:45.092Z,7.37
2019-04-30T09:35:11.275Z,8.33
2019-04-30T09:37:39.410Z,7.10
2019-04-30T09:40:15.154Z,7.30
2019-04-30T09:42:34.144Z,6.70
2019-04-30T09:45:00.125Z,8.37
2019-04-30T09:47:26.289Z,7.70
2019-04-30T09:49:52.294Z,9.03
2019-04-30T09:52:19.343Z,8.27
2019-04-30T09:54:46.035Z,8.17
2019-04-30T09:57:12.210Z,7.33
2019-04-30T09:59:38.810Z,11.30
2019-04-30T10:02:05.025Z,7.63
2019-04-30T10:04:31.396Z,7.83
2019-04-30T10:06:59.549Z,7.93
2019-04-30T10:09:25.735Z,9.80
2019-04-30T10:11:56.391Z,6.27
2019-04-30T10:14:22.627Z,8.10
2019-04-30T10:16:56.368Z,6.80
2019-04-30T10:19:22.419Z,12.20
2019-04-30T10:21:48.959Z,10.37
2019-04-30T10:24:15.835Z,7.27
2019-04-30T10:26:43.038Z,10.50
2019-04-30T10:29:09.189Z,7.73
2019-04-30T10:31:35.489Z,6.87
2019-04-30T10:34:01.502Z,9.83
2019-04-30T10:36:29.444Z,7.37
2019-04-30T10:38:55.664Z,8.30
2019-04-30T10:41:21.755Z,9.80
2019-04-30T10:43:49.152Z,7.50
2019-04-30T10:46:15.496Z,7.67
2019-04-30T10:48:43.406Z,5.97
2019-04-30T10:51:09.377Z,8.30
2019-04-30T10:53:35.413Z,8.03
2019-04-30T10:56:01.489Z,6.83
2019-04-30T10:58:27.492Z,8.40
2019-04-30T11:00:53.700Z,8.17
2019-04-30T11:03:22.819Z,6.90
2019-04-30T11:05:48.834Z,7.97
2019-04-30T11:08:14.967Z,7.63
2019-04-30T11:10:41.038Z,7.33
2019-04-30T11:13:07.007Z,9.63
2019-04-30T11:15:33.078Z,6.83
2019-04-30T11:17:59.684Z,6.77
2019-04-30T11:20:26.079Z,6.67
2019-04-30T11:22:54.501Z,6.93
2019-04-30T11:25:20.536Z,7.10
2019-04-30T11:27:47.216Z,7.37
2019-04-30T11:30:21.272Z,8.50
2019-04-30T11:32:42.520Z,7.30
2019-04-30T11:35:09.076Z,9.27
2019-04-30T11:37:35.063Z,8.00
2019-04-30T11:40:01.270Z,9.10
2019-04-30T11:42:28.536Z,7.07
2019-04-30T11:44:54.555Z,8.43
2019-04-30T11:47:24.410Z,11.00
2019-04-30T11:49:50.417Z,9.23
2019-04-30T11:52:16.513Z,8.50
2019-04-30T11:54:49.117Z,7.63
2019-04-30T11:57:10.750Z,8.53
2019-04-30T11:59:36.749Z,8.87
2019-04-30T12:02:05.073Z,13.63
2019-04-30T12:04:31.085Z,12.67
2019-04-30T12:06:59.041Z,10.50
2019-04-30T12:09:29.696Z,12.60
2019-04-30T12:11:55.700Z,10.77
2019-04-30T12:14:21.722Z,11.80
2019-04-30T12:16:47.719Z,15.47
2019-04-30T12:19:13.733Z,15.00
2019-04-30T12:21:39.749Z,10.80
2019-04-30T12:24:05.772Z,15.93
2019-04-30T12:26:31.764Z,14.70
2019-04-30T12:28:57.764Z,18.17
2019-04-30T12:31:23.892Z,12.83
2019-04-30T12:33:49.918Z,13.67
2019-04-30T12:36:15.963Z,13.47
2019-04-30T12:38:41.961Z,13.43
2019-04-30T12:41:09.948Z,14.40
2019-04-30T12:43:35.966Z,17.30
2019-04-30T12:46:05.485Z,12.47
2019-04-30T12:48:35.485Z,12.23
2019-04-30T12:51:12.279Z,18.23
2019-04-30T12:53:56.691Z,12.47
2019-04-30T12:56:27.026Z,13.97
2019-04-30T12:58:53.007Z,14.40
2019-04-30T13:01:18.986Z,14.70
2019-04-30T13:03:55.911Z,14.80
2019-04-30T13:06:13.582Z,19.83
2019-04-30T13:08:40.422Z,13.90
2019-04-30T13:11:07.517Z,14.27
2019-04-30T13:13:35.524Z,13.13
2019-04-30T13:16:01.723Z,12.93
2019-04-30T13:18:29.488Z,12.40
2019-04-30T13:20:55.732Z,12.37
2019-04-30T13:23:21.772Z,11.53
2019-04-30T13:25:51.391Z,11.50
2019-04-30T13:28:20.378Z,12.07
2019-04-30T13:30:46.480Z,12.43
2019-04-30T13:33:14.404Z,13.03
2019-04-30T13:35:40.401Z,12.67
2019-04-30T13:38:11.056Z,13.27
2019-04-30T13:40:41.516Z,12.63
2019-04-30T13:43:09.398Z,13.67
2019-04-30T13:45:35.434Z,11.27
2019-04-30T13:48:01.664Z,13.53
2019-04-30T13:50:29.197Z,11.77
2019-04-30T13:52:55.537Z,13.20
2019-04-30T13:55:21.564Z,10.37
2019-04-30T13:57:47.551Z,10.90
2019-04-30T14:00:16.060Z,23.70
2019-04-30T14:02:44.901Z,11.67
2019-04-30T14:05:14.031Z,10.50
2019-04-30T14:07:59.846Z,9.03
2019-04-30T14:10:29.345Z,9.27
2019-04-30T14:12:57.323Z,10.43
2019-04-30T14:15:23.338Z,10.53
2019-04-30T14:17:49.464Z,8.87
2019-04-30T14:20:15.707Z,6.83
2019-04-30T14:22:41.737Z,6.73
2019-04-30T14:25:08.022Z,6.23
2019-04-30T14:27:34.048Z,10.23
2019-04-30T14:30:00.038Z,8.90
2019-04-30T14:32:28.409Z,10.47
2019-04-30T14:34:54.367Z,11.80
2019-04-30T14:37:20.430Z,10.97
2019-04-30T14:39:46.547Z,9.87
2019-04-30T14:42:13.237Z,16.37
2019-04-30T14:44:40.568Z,16.17
2019-04-30T14:47:12.633Z,22.70
2019-04-30T14:50:02.686Z,29.63
2019-04-30T14:52:25.541Z,35.13
2019-04-30T14:55:05.373Z,33.70
2019-04-30T14:57:38.859Z,35.23
2019-04-30T15:00:09.851Z,38.60
2019-04-30T15:02:37.742Z,36.83
2019-04-30T15:05:08.808Z,36.63
2019-04-30T15:07:34.853Z,35.87
2019-04-30T15:10:01.476Z,35.57
2019-04-30T15:12:27.525Z,37.37
2019-04-30T15:14:53.525Z,35.73
2019-04-30T15:17:19.817Z,38.07
2019-04-30T15:19:45.824Z,36.60
2019-04-30T15:22:11.887Z,35.17
2019-04-30T15:24:39.593Z,36.53
2019-04-30T15:27:05.592Z,37.03
2019-04-30T15:29:31.616Z,37.17
2019-04-30T15:31:59.282Z,34.20
2019-04-30T15:34:25.456Z,36.23
2019-04-30T15:36:51.526Z,31.00
2019-04-30T15:39:39.268Z,34.77
2019-04-30T15:42:05.952Z,33.17
2019-04-30T15:44:40.167Z,31.17
2019-04-30T15:47:01.105Z,31.57
2019-04-30T15:49:27.190Z,30.30
2019-04-30T15:51:53.228Z,30.77
2019-04-30T15:54:20.965Z,30.47
2019-04-30T15:56:48.896Z,27.57
2019-04-30T15:59:19.794Z,29.30
2019-04-30T16:01:56.532Z,26.33
2019-04-30T16:04:39.356Z,27.43
2019-04-30T16:07:05.723Z,25.77
2019-04-30T16:09:38.438Z,23.37
2019-04-30T16:12:22.982Z,24.07
2019-04-30T16:14:49.100Z,23.87
2019-04-30T16:17:22.448Z,23.97
2019-04-30T16:19:48.573Z,20.60
2019-04-30T16:22:14.696Z,20.37
2019-04-30T16:24:40.763Z,19.67
2019-04-30T16:27:08.748Z,21.63
2019-04-30T16:29:34.855Z,22.20
2019-04-30T16:32:00.986Z,20.60
2019-04-30T16:34:30.189Z,19.03
2019-04-30T16:36:55.220Z,23.03
2019-04-30T16:39:21.357Z,20.80
2019-04-30T16:41:49.512Z,18.93
2019-04-30T16:44:15.348Z,18.47
2019-04-30T16:46:43.476Z,20.00
2019-04-30T16:49:10.533Z,20.40
2019-04-30T16:51:38.607Z,21.53
2019-04-30T16:54:04.773Z,19.80
2019-04-30T16:56:30.764Z,17.80
2019-04-30T16:58:57.777Z,17.37
2019-04-30T17:01:23.868Z,17.63
2019-04-30T17:03:51.782Z,19.53
2019-04-30T17:06:19.775Z,19.50
2019-04-30T17:08:50.216Z,18.77
2019-04-30T17:11:18.090Z,18.57
2019-04-30T17:13:54.916Z,18.73
2019-04-30T17:16:23.357Z,19.10
2019-04-30T17:18:50.104Z,19.67
2019-04-30T17:21:16.380Z,17.57
2019-04-30T17:23:42.423Z,20.00
2019-04-30T17:26:08.491Z,20.73
2019-04-30T17:28:34.604Z,20.90
2019-04-30T17:31:00.617Z,19.10
2019-04-30T17:33:26.646Z,18.40
2019-04-30T17:35:52.631Z,18.07
2019-04-30T17:38:18.634Z,20.20
2019-04-30T17:40:44.684Z,16.93
2019-04-30T17:43:10.689Z,17.97
2019-04-30T17:45:36.721Z,20.90
2019-04-30T17:48:02.939Z,20.20
2019-04-30T17:50:29.596Z,17.43
2019-04-30T17:52:55.780Z,19.70
2019-04-30T17:55:21.776Z,17.20
2019-04-30T17:57:48.692Z,18.00
2019-04-30T18:00:19.957Z,19.80
2019-04-30T18:02:44.546Z,19.10
2019-04-30T18:05:11.403Z,17.37
2019-04-30T18:07:39.403Z,18.63
2019-04-30T18:10:08.743Z,18.20
2019-04-30T18:12:34.894Z,21.23
2019-04-30T18:15:01.087Z,19.67
2019-04-30T18:17:27.079Z,19.77
2019-04-30T18:19:55.261Z,19.13
2019-04-30T18:22:40.103Z,20.57
2019-04-30T18:25:11.309Z,21.23
2019-04-30T18:27:45.642Z,20.70
2019-04-30T18:30:11.726Z,21.50
2019-04-30T18:32:38.679Z,22.20
2019-04-30T18:35:05.435Z,20.83
2019-04-30T18:37:31.564Z,20.83
2019-04-30T18:39:59.979Z,19.33
2019-04-30T18:42:25.589Z,21.20
2019-04-30T18:44:51.577Z,20.47
2019-04-30T18:47:18.878Z,19.37
2019-04-30T18:49:45.008Z,18.83
2019-04-30T18:52:11.033Z,18.40
2019-04-30T18:54:39.724Z,17.10
2019-04-30T18:57:05.938Z,20.00
2019-04-30T18:59:32.714Z,22.17
2019-04-30T19:01:58.803Z,20.53
2019-04-30T19:04:24.965Z,22.40
2019-04-30T19:06:52.852Z,20.57
2019-04-30T19:09:20.735Z,21.73
2019-04-30T19:11:54.973Z,18.53
2019-04-30T19:14:29.497Z,19.23
2019-04-30T19:17:03.591Z,19.83
2019-04-30T19:19:40.379Z,21.30
2019-04-30T19:22:06.775Z,19.80
2019-04-30T19:24:32.883Z,20.00
2019-04-30T19:26:58.875Z,19.73
2019-04-30T19:29:25.950Z,20.47
2019-04-30T19:31:52.275Z,19.73
2019-04-30T19:34:18.322Z,21.97
2019-04-30T19:36:44.340Z,21.90
2019-04-30T19:39:12.306Z,19.70
2019-04-30T19:41:38.733Z,20.40
2019-04-30T19:44:05.068Z,21.57
2019-04-30T19:46:31.148Z,22.23
2019-04-30T19:48:58.583Z,20.97
2019-04-30T19:51:24.835Z,21.00
2019-04-30T19:53:50.812Z,19.77
2019-04-30T19:56:18.306Z,21.87
2019-04-30T19:58:55.798Z,21.30
2019-04-30T20:01:12.837Z,21.00
2019-04-30T20:03:40.709Z,21.57
2019-04-30T20:06:08.840Z,21.23
2019-04-30T20:08:34.690Z,21.33
2019-04-30T20:11:00.666Z,22.10
2019-04-30T20:13:33.786Z,21.00
2019-04-30T20:15:54.696Z,20.47
2019-04-30T20:18:20.720Z,24.07
2019-04-30T20:20:51.588Z,21.37
2019-04-30T20:23:16.512Z,21.97
2019-04-30T20:25:42.499Z,21.20
2019-04-30T20:28:08.545Z,22.23
2019-04-30T20:30:34.520Z,20.90
2019-04-30T20:33:00.687Z,20.03
2019-04-30T20:35:26.656Z,21.00
2019-04-30T20:38:10.753Z,20.10
2019-04-30T20:40:43.682Z,26.33
2019-04-30T20:43:05.992Z,21.00
2019-04-30T20:45:31.980Z,21.57
2019-04-30T20:47:59.234Z,22.57
2019-04-30T20:50:25.388Z,23.37
2019-04-30T20:52:51.376Z,22.97
2019-04-30T20:55:17.443Z,25.30
2019-04-30T20:57:43.526Z,23.80
2019-04-30T21:00:09.852Z,30.23
2019-04-30T21:02:35.924Z,25.10
2019-04-30T21:05:03.443Z,23.40
2019-04-30T21:07:29.435Z,22.10
2019-04-30T21:09:55.456Z,25.77
2019-04-30T21:12:21.493Z,24.63
2019-04-30T21:14:48.564Z,23.57
2019-04-30T21:17:14.703Z,25.27
2019-04-30T21:19:40.786Z,25.47
2019-04-30T21:22:06.871Z,28.87
2019-04-30T21:24:32.914Z,23.73
2019-04-30T21:26:58.926Z,23.60
2019-04-30T21:29:24.959Z,26.77
2019-04-30T21:32:04.629Z,26.37
2019-04-30T21:34:35.671Z,26.67
2019-04-30T21:37:01.771Z,25.90
2019-04-30T21:39:27.998Z,25.43
2019-04-30T21:41:53.979Z,26.50
2019-04-30T21:44:19.992Z,25.20
2019-04-30T21:46:45.970Z,27.67
2019-04-30T21:49:11.971Z,23.07
2019-04-30T21:51:40.074Z,25.23
2019-04-30T21:54:05.908Z,25.33
2019-04-30T21:56:31.889Z,25.40
2019-04-30T21:58:57.937Z,25.27
2019-04-30T22:01:24.138Z,25.10
2019-04-30T22:03:50.236Z,24.23
2019-04-30T22:06:16.444Z,27.40
2019-04-30T22:08:42.442Z,27.60
2019-04-30T22:11:09.783Z,30.23
2019-04-30T22:13:35.995Z,27.23
2019-04-30T22:16:01.986Z,26.50
2019-04-30T22:18:28.046Z,31.77
2019-04-30T22:20:54.685Z,27.90
2019-04-30T22:23:20.805Z,27.03
2019-04-30T22:25:46.941Z,36.10
2019-04-30T22:28:12.992Z,27.87
2019-04-30T22:30:39.064Z,27.37
2019-04-30T22:33:05.047Z,26.07
2019-04-30T22:35:33.160Z,28.90
2019-04-30T22:38:03.883Z,27.50
2019-04-30T22:40:31.654Z,41.13
2019-04-30T22:42:59.358Z,26.27
2019-04-30T22:45:27.376Z,27.23
2019-04-30T22:47:53.473Z,28.10
2019-04-30T22:50:19.580Z,29.40
2019-04-30T22:52:45.725Z,30.53
2019-04-30T22:55:12.436Z,29.17
2019-04-30T22:57:38.568Z,29.30
2019-04-30T23:00:09.577Z,27.53
2019-04-30T23:02:36.852Z,30.53
2019-04-30T23:05:04.791Z,30.63
2019-04-30T23:07:31.263Z,29.53
2019-04-30T23:09:57.341Z,32.80
2019-04-30T23:12:24.331Z,29.83
2019-04-30T23:14:50.292Z,32.77
2019-04-30T23:17:16.296Z,30.73
2019-04-30T23:19:49.143Z,31.80
2019-04-30T23:22:10.213Z,32.07
2019-04-30T23:24:36.563Z,34.93
2019-04-30T23:27:02.644Z,35.03
2019-04-30T23:29:28.614Z,36.90
2019-04-30T23:31:54.624Z,38.00
2019-04-30T23:34:20.603Z,37.23
2019-04-30T23:36:46.889Z,39.90
2019-04-30T23:39:12.883Z,36.53
2019-04-30T23:41:39.133Z,33.53
2019-04-30T23:44:05.255Z,33.57
2019-04-30T23:46:31.271Z,35.80
2019-04-30T23:48:57.285Z,34.00
2019-04-30T23:51:23.276Z,38.30
2019-04-30T23:53:49.252Z,36.07
2019-04-30T23:56:15.263Z,36.10
2019-04-30T23:58:41.247Z,37.83
